createdAt,value
2022-11-16T00:02:40.105Z,10.83
2022-11-16T00:06:42.026Z,10.77
2022-11-16T00:10:47.723Z,8.70
2022-11-16T00:15:15.415Z,9.47
2022-11-16T00:19:17.722Z,10.57
2022-11-16T00:23:19.902Z,9.67
2022-11-16T00:27:21.785Z,11.17
2022-11-16T00:31:24.504Z,19.40
2022-11-16T00:35:55.194Z,12.10
2022-11-16T00:39:57.085Z,36.17
2022-11-16T00:43:59.047Z,14.30
2022-11-16T00:48:01.098Z,25.13
2022-11-16T00:52:10.090Z,13.80
2022-11-16T00:56:13.101Z,14.80
2022-11-16T01:00:21.084Z,27.93
2022-11-16T01:04:49.286Z,27.37
2022-11-16T01:08:51.598Z,13.03
2022-11-16T01:12:55.083Z,9.43
2022-11-16T01:16:56.988Z,13.03
2022-11-16T01:20:59.037Z,13.57
2022-11-16T01:25:01.317Z,17.00
2022-11-16T01:29:03.253Z,31.23
2022-11-16T01:33:16.763Z,16.07
2022-11-16T01:37:20.220Z,29.03
2022-11-16T01:41:24.649Z,18.33
2022-11-16T01:51:31.522Z,40.20
2022-11-16T01:56:04.832Z,45.33
2022-11-16T02:00:26.499Z,40.73
2022-11-16T02:04:47.682Z,32.87
2022-11-16T02:09:54.079Z,47.13
2022-11-16T02:13:59.978Z,34.43
2022-11-16T02:18:26.908Z,40.03
2022-11-16T02:23:01.528Z,12.97
2022-11-16T02:27:40.339Z,22.07
2022-11-16T02:32:20.740Z,35.70
2022-11-16T02:36:43.130Z,27.47
2022-11-16T02:40:53.802Z,36.63
2022-11-16T02:45:29.425Z,13.30
2022-11-16T02:49:36.725Z,11.13
2022-11-16T02:54:02.786Z,12.00
2022-11-16T02:58:09.747Z,10.20
2022-11-16T03:02:36.517Z,15.20
2022-11-16T03:07:07.720Z,14.13
2022-11-16T03:15:53.191Z,33.60
2022-11-16T03:20:16.357Z,28.10
2022-11-16T03:29:13.449Z,11.17
2022-11-16T03:33:24.282Z,16.47
2022-11-16T03:37:29.050Z,9.83
2022-11-16T03:41:35.757Z,28.50
2022-11-16T03:45:38.390Z,10.13
2022-11-16T03:49:45.511Z,11.30
2022-11-16T03:53:49.343Z,16.43
2022-11-16T03:57:51.410Z,10.77
2022-11-16T04:01:53.467Z,26.87
2022-11-16T04:06:14.098Z,17.47
2022-11-16T04:10:44.824Z,15.43
2022-11-16T04:15:11.177Z,12.50
2022-11-16T04:19:45.989Z,19.13
2022-11-16T04:24:18.973Z,11.03
2022-11-16T04:28:34.980Z,13.80
2022-11-16T04:32:57.850Z,40.60
2022-11-16T04:37:37.372Z,40.30
2022-11-16T04:42:03.281Z,42.90
2022-11-16T04:46:35.190Z,25.97
2022-11-16T04:50:43.363Z,15.90
2022-11-16T04:54:52.649Z,21.20
2022-11-16T04:58:54.818Z,11.70
2022-11-16T05:03:01.536Z,29.33
2022-11-16T05:07:11.299Z,34.37
2022-11-16T05:11:16.683Z,39.77
2022-11-16T05:15:19.932Z,19.67
2022-11-16T05:20:02.069Z,9.77
2022-11-16T05:24:35.573Z,17.13
2022-11-16T05:28:45.529Z,26.67
2022-11-16T05:32:48.583Z,10.27
2022-11-16T05:36:54.339Z,32.27
2022-11-16T05:40:56.565Z,46.27
2022-11-16T05:44:58.455Z,11.70
2022-11-16T05:50:05.645Z,11.43
2022-11-16T05:54:39.110Z,10.80
2022-11-16T05:58:42.314Z,12.00
2022-11-16T06:02:50.657Z,26.53
2022-11-16T06:06:57.987Z,39.47
2022-11-16T06:11:36.502Z,14.00
2022-11-16T06:15:40.843Z,38.13
2022-11-16T06:19:44.488Z,23.87
2022-11-16T06:23:47.070Z,55.50
2022-11-16T06:28:15.553Z,16.10
2022-11-16T06:33:21.046Z,47.90
2022-11-16T06:37:22.885Z,21.20
2022-11-16T06:41:51.340Z,30.97
2022-11-16T06:45:57.812Z,13.37
2022-11-16T06:50:58.452Z,52.60
2022-11-16T06:55:51.094Z,13.50
2022-11-16T06:59:55.469Z,17.53
2022-11-16T07:04:05.969Z,15.07
2022-11-16T07:08:13.629Z,33.43
2022-11-16T07:12:31.219Z,17.67
2022-11-16T07:17:01.881Z,12.07
2022-11-16T07:21:11.446Z,10.37
2022-11-16T07:25:14.070Z,22.67
2022-11-16T07:29:16.189Z,30.37
2022-11-16T07:33:40.912Z,16.43
2022-11-16T07:38:08.347Z,12.33
2022-11-16T07:42:12.104Z,12.20
2022-11-16T07:46:46.419Z,10.70
2022-11-16T07:50:49.901Z,11.70
2022-11-16T07:55:11.594Z,10.87
2022-11-16T07:59:14.970Z,13.00
2022-11-16T08:03:29.291Z,13.67
2022-11-16T08:08:41.653Z,10.17
2022-11-16T08:13:34.420Z,12.63
2022-11-16T08:17:37.612Z,17.70
2022-11-16T08:21:40.936Z,10.07
2022-11-16T08:25:47.628Z,9.70
2022-11-16T08:29:49.659Z,8.83
2022-11-16T08:33:54.240Z,10.40
2022-11-16T08:37:57.712Z,10.47
2022-11-16T08:42:01.707Z,8.33
2022-11-16T08:46:03.695Z,9.60
2022-11-16T08:50:06.076Z,8.97
2022-11-16T08:54:23.174Z,8.93
2022-11-16T08:58:26.201Z,7.57
2022-11-16T09:02:28.256Z,7.83
2022-11-16T09:06:30.339Z,6.37
2022-11-16T09:10:38.621Z,5.90
2022-11-16T09:14:40.626Z,6.10
2022-11-16T09:19:08.198Z,7.60
2022-11-16T09:28:38.539Z,6.10
2022-11-16T09:32:40.594Z,5.97
2022-11-16T09:36:42.684Z,6.53
2022-11-16T09:40:46.995Z,5.80
2022-11-16T09:44:58.349Z,5.30
2022-11-16T09:49:16.846Z,4.60
2022-11-16T09:53:27.500Z,5.83
2022-11-16T09:57:37.393Z,5.90
2022-11-16T10:02:39.526Z,6.03
2022-11-16T10:07:02.182Z,4.93
2022-11-16T10:11:38.335Z,4.87
2022-11-16T10:15:46.347Z,4.77
2022-11-16T10:20:09.646Z,5.80
2022-11-16T10:24:35.939Z,5.00
2022-11-16T10:29:08.613Z,4.80
2022-11-16T10:33:17.109Z,5.83
2022-11-16T10:37:20.722Z,5.17
2022-11-16T10:46:38.178Z,5.30
2022-11-16T10:51:01.866Z,5.03
2022-11-16T10:55:31.283Z,4.57
2022-11-16T10:59:45.454Z,4.60
2022-11-16T11:03:50.911Z,5.07
2022-11-16T11:08:04.351Z,4.97
2022-11-16T11:12:53.804Z,3.93
2022-11-16T11:18:11.176Z,3.93
2022-11-16T11:22:17.484Z,4.20
2022-11-16T11:26:40.272Z,3.87
2022-11-16T11:30:59.366Z,2.80
2022-11-16T11:35:03.615Z,4.00
2022-11-16T11:39:16.751Z,3.50
2022-11-16T11:43:23.846Z,3.13
2022-11-16T11:47:59.071Z,3.17
2022-11-16T11:52:51.996Z,2.70
2022-11-16T11:56:54.008Z,2.93
2022-11-16T12:01:08.201Z,3.00
2022-11-16T12:05:26.285Z,2.43
2022-11-16T12:09:47.769Z,2.60
2022-11-16T12:14:01.980Z,2.23
2022-11-16T12:18:31.333Z,1.80
2022-11-16T12:22:53.026Z,2.10
2022-11-16T12:27:21.141Z,2.03
2022-11-16T12:31:35.197Z,2.13
2022-11-16T12:35:59.850Z,2.07
2022-11-16T12:40:36.523Z,2.10
2022-11-16T12:45:07.174Z,2.00
2022-11-16T12:49:35.480Z,2.57
2022-11-16T12:54:13.613Z,2.70
2022-11-16T12:58:30.934Z,2.37
2022-11-16T13:08:53.781Z,3.23
2022-11-16T13:13:35.028Z,2.50
2022-11-16T13:17:38.624Z,2.47
2022-11-16T13:22:07.021Z,3.30
2022-11-16T13:26:43.968Z,2.60
2022-11-16T13:31:00.426Z,3.50
2022-11-16T13:35:06.927Z,2.90
2022-11-16T13:39:53.077Z,3.60
2022-11-16T13:43:55.850Z,3.37
2022-11-16T13:47:59.093Z,3.50
2022-11-16T13:52:22.489Z,5.47
2022-11-16T14:02:28.605Z,4.20
2022-11-16T14:06:42.951Z,5.07
2022-11-16T14:10:45.000Z,3.93
2022-11-16T14:15:42.905Z,3.43
2022-11-16T14:19:45.328Z,4.27
2022-11-16T14:23:56.686Z,3.77
2022-11-16T14:28:11.839Z,4.70
2022-11-16T14:32:18.981Z,3.37
2022-11-16T14:36:46.809Z,2.83
2022-11-16T14:40:58.959Z,2.97
2022-11-16T14:45:46.356Z,4.43
2022-11-16T14:49:48.859Z,4.17
2022-11-16T14:53:55.393Z,4.00
2022-11-16T14:58:16.764Z,3.60
2022-11-16T15:02:23.195Z,3.93
2022-11-16T15:06:27.032Z,4.60
2022-11-16T15:10:29.638Z,4.80
2022-11-16T15:14:37.208Z,5.07
2022-11-16T15:19:28.859Z,3.63
2022-11-16T15:23:31.070Z,4.50
2022-11-16T15:27:41.655Z,5.03
2022-11-16T15:31:44.284Z,4.00
2022-11-16T15:35:47.420Z,3.50
2022-11-16T15:39:49.428Z,3.73
2022-11-16T15:44:13.273Z,4.07
2022-11-16T15:49:17.492Z,5.73
2022-11-16T15:53:41.950Z,3.83
2022-11-16T15:58:14.874Z,3.63
2022-11-16T16:02:22.737Z,5.07
2022-11-16T16:12:28.440Z,4.13
2022-11-16T16:16:42.463Z,4.10
2022-11-16T16:20:48.593Z,5.60
2022-11-16T16:24:50.802Z,5.03
2022-11-16T16:28:58.717Z,6.07
2022-11-16T16:33:02.249Z,4.13
2022-11-16T16:37:04.567Z,4.87
2022-11-16T16:41:07.080Z,4.97
2022-11-16T16:45:38.909Z,4.70
2022-11-16T16:49:41.309Z,4.63
2022-11-16T16:54:38.256Z,4.67
2022-11-16T16:58:40.353Z,3.50
2022-11-16T17:02:42.313Z,3.90
2022-11-16T17:06:46.578Z,5.33
2022-11-16T17:10:59.844Z,4.13
2022-11-16T17:15:02.057Z,5.00
2022-11-16T17:19:04.985Z,4.00
2022-11-16T17:23:11.616Z,4.97
2022-11-16T17:27:13.506Z,3.90
2022-11-16T17:31:43.947Z,3.70
2022-11-16T17:35:57.655Z,3.77
2022-11-16T17:39:59.752Z,3.27
2022-11-16T17:44:01.631Z,3.00
2022-11-16T17:48:03.714Z,2.80
2022-11-16T17:52:06.282Z,2.33
2022-11-16T17:56:08.505Z,1.47
2022-11-16T18:00:11.091Z,1.87
2022-11-16T18:04:13.057Z,1.73
2022-11-16T18:08:14.901Z,2.00
2022-11-16T18:12:16.735Z,2.00
2022-11-16T18:16:21.234Z,1.40
2022-11-16T18:20:24.444Z,1.53
2022-11-16T18:24:26.339Z,1.77
2022-11-16T18:29:19.394Z,1.50
2022-11-16T18:33:21.208Z,1.50
2022-11-16T18:37:23.054Z,1.33
2022-11-16T18:41:27.696Z,1.57
2022-11-16T18:45:29.642Z,1.13
2022-11-16T18:49:32.632Z,1.20
2022-11-16T18:53:41.977Z,1.20
2022-11-16T18:57:46.070Z,0.97
2022-11-16T19:01:47.917Z,1.50
2022-11-16T19:05:57.810Z,1.33
2022-11-16T19:10:19.174Z,1.10
2022-11-16T19:14:21.327Z,1.20
2022-11-16T19:18:27.243Z,0.80
2022-11-16T19:22:33.297Z,0.83
2022-11-16T19:27:32.240Z,1.03
2022-11-16T19:32:24.129Z,1.20
2022-11-16T19:36:51.160Z,1.10
2022-11-16T19:41:03.598Z,1.13
2022-11-16T19:45:06.003Z,1.00
2022-11-16T19:49:19.496Z,0.90
2022-11-16T19:53:21.840Z,0.93
2022-11-16T19:57:42.961Z,0.97
2022-11-16T20:02:11.237Z,0.87
2022-11-16T20:06:22.661Z,1.30
2022-11-16T20:11:25.426Z,1.63
2022-11-16T20:15:29.993Z,1.43
2022-11-16T20:19:49.513Z,0.80
2022-11-16T20:23:53.763Z,0.70
2022-11-16T20:27:55.723Z,0.80
2022-11-16T20:32:26.179Z,0.70
2022-11-16T20:36:30.068Z,0.70
2022-11-16T20:40:32.632Z,0.60
2022-11-16T20:44:46.090Z,1.10
2022-11-16T20:48:52.849Z,0.80
2022-11-16T20:53:09.081Z,0.63
2022-11-16T20:57:39.200Z,0.57
2022-11-16T21:01:44.848Z,0.80
2022-11-16T21:11:52.084Z,0.90
2022-11-16T21:16:07.207Z,0.70
2022-11-16T21:20:34.386Z,0.90
2022-11-16T21:24:37.431Z,0.80
2022-11-16T21:29:07.238Z,0.70
2022-11-16T21:33:26.394Z,0.80
2022-11-16T21:38:17.823Z,0.80
2022-11-16T21:42:19.892Z,0.70
2022-11-16T21:46:24.953Z,0.50
2022-11-16T21:55:35.543Z,0.80
2022-11-16T22:00:06.523Z,1.00
2022-11-16T22:04:31.748Z,0.80
2022-11-16T22:08:33.621Z,1.23
2022-11-16T22:12:36.025Z,1.33
2022-11-16T22:17:03.437Z,1.30
2022-11-16T22:21:08.664Z,0.97
2022-11-16T22:25:11.100Z,1.10
2022-11-16T22:29:23.430Z,0.90
2022-11-16T22:33:55.377Z,0.93
2022-11-16T22:38:05.438Z,1.23
2022-11-16T22:42:11.592Z,1.23
2022-11-16T22:46:21.508Z,1.00
2022-11-16T22:50:27.307Z,1.20
2022-11-16T22:54:30.328Z,1.40
2022-11-16T22:58:32.386Z,0.80
2022-11-16T23:02:34.492Z,0.97
2022-11-16T23:06:37.811Z,1.50
2022-11-16T23:11:30.254Z,2.20
2022-11-16T23:16:03.309Z,1.50
2022-11-16T23:20:24.254Z,1.20
2022-11-16T23:29:05.949Z,1.67
2022-11-16T23:33:08.153Z,1.40
2022-11-16T23:37:14.232Z,1.60
2022-11-16T23:41:35.840Z,1.50
2022-11-16T23:45:45.258Z,1.70
2022-11-16T23:50:14.156Z,2.03
2022-11-16T23:54:16.022Z,2.50
2022-11-16T23:58:17.903Z,3.20
